createdAt,value
2019-01-29T00:01:39.867Z,51.70
2019-01-29T00:04:08.613Z,55.03
2019-01-29T00:06:37.394Z,58.30
2019-01-29T00:09:09.077Z,52.60
2019-01-29T00:11:37.839Z,55.28
2019-01-29T00:14:06.308Z,55.52
2019-01-29T00:16:34.761Z,51.68
2019-01-29T00:19:03.188Z,54.05
2019-01-29T00:21:31.939Z,54.93
2019-01-29T00:24:00.366Z,56.92
2019-01-29T00:26:28.818Z,53.35
2019-01-29T00:28:57.247Z,49.53
2019-01-29T00:31:25.960Z,57.10
2019-01-29T00:33:54.682Z,54.77
2019-01-29T00:36:23.472Z,61.35
2019-01-29T00:38:52.255Z,53.35
2019-01-29T00:41:21.061Z,59.05
2019-01-29T00:43:49.523Z,56.30
2019-01-29T00:46:18.315Z,67.00
2019-01-29T00:48:46.778Z,61.40
2019-01-29T00:51:16.714Z,57.60
2019-01-29T00:53:45.498Z,55.35
2019-01-29T00:56:14.286Z,54.53
2019-01-29T00:58:42.730Z,52.65
2019-01-29T01:01:11.154Z,44.05
2019-01-29T01:03:39.600Z,48.63
2019-01-29T01:06:08.309Z,51.30
2019-01-29T01:08:38.445Z,49.80
2019-01-29T01:11:06.996Z,51.60
2019-01-29T01:13:35.694Z,47.65
2019-01-29T01:16:04.127Z,43.50
2019-01-29T01:18:33.486Z,55.23
2019-01-29T01:21:01.923Z,44.95
2019-01-29T01:23:30.616Z,47.90
2019-01-29T01:25:59.327Z,40.05
2019-01-29T01:28:27.766Z,40.45
2019-01-29T01:30:56.197Z,45.65
2019-01-29T01:33:24.639Z,40.12
2019-01-29T01:35:53.088Z,37.38
2019-01-29T01:38:21.534Z,42.70
2019-01-29T01:40:50.206Z,41.40
2019-01-29T01:43:19.000Z,36.38
2019-01-29T01:45:47.432Z,36.17
2019-01-29T01:48:15.956Z,38.98
2019-01-29T01:50:44.385Z,38.00
2019-01-29T01:53:13.127Z,35.35
2019-01-29T01:55:41.871Z,37.98
2019-01-29T01:58:10.320Z,37.40
2019-01-29T02:00:39.087Z,42.33
2019-01-29T02:03:07.539Z,39.98
2019-01-29T02:05:35.970Z,37.88
2019-01-29T02:08:04.423Z,39.30
2019-01-29T02:10:32.873Z,41.10
2019-01-29T02:13:01.304Z,39.05
2019-01-29T02:15:29.747Z,39.10
2019-01-29T02:17:58.186Z,35.17
2019-01-29T02:20:26.631Z,35.92
2019-01-29T02:22:55.148Z,35.30
2019-01-29T02:25:24.198Z,37.45
2019-01-29T02:27:52.624Z,38.35
2019-01-29T02:30:22.944Z,32.45
2019-01-29T02:32:51.697Z,31.93
2019-01-29T02:35:20.821Z,31.37
2019-01-29T02:37:49.640Z,31.90
2019-01-29T02:40:20.507Z,29.60
2019-01-29T02:42:48.941Z,36.77
2019-01-29T02:45:19.116Z,28.25
2019-01-29T02:47:47.599Z,25.10
2019-01-29T02:50:16.115Z,26.90
2019-01-29T02:52:45.224Z,23.85
2019-01-29T02:55:14.070Z,23.15
2019-01-29T02:57:42.809Z,25.43
2019-01-29T03:00:14.640Z,24.92
2019-01-29T03:02:43.067Z,26.70
2019-01-29T03:05:12.192Z,26.17
2019-01-29T03:07:42.795Z,23.15
2019-01-29T03:10:12.900Z,22.30
2019-01-29T03:12:41.410Z,22.07
2019-01-29T03:15:12.808Z,29.70
2019-01-29T03:17:41.226Z,24.35
2019-01-29T03:20:10.235Z,23.50
2019-01-29T03:22:38.664Z,24.80
2019-01-29T03:25:08.604Z,28.25
2019-01-29T03:27:37.524Z,27.32
2019-01-29T03:30:07.297Z,27.95
2019-01-29T03:32:36.218Z,37.65
2019-01-29T03:35:05.793Z,35.52
2019-01-29T03:37:34.264Z,34.23
2019-01-29T03:40:02.998Z,35.48
2019-01-29T03:42:31.463Z,34.65
2019-01-29T03:44:59.900Z,39.67
2019-01-29T03:47:28.334Z,33.88
2019-01-29T03:49:56.780Z,34.00
2019-01-29T03:52:25.510Z,36.20
2019-01-29T03:54:53.960Z,27.98
2019-01-29T03:57:22.399Z,31.93
2019-01-29T03:59:50.831Z,35.00
2019-01-29T04:02:19.633Z,29.77
2019-01-29T04:04:48.331Z,37.55
2019-01-29T04:07:16.787Z,36.20
2019-01-29T04:09:45.291Z,33.38
2019-01-29T04:12:13.727Z,35.65
2019-01-29T04:14:42.451Z,38.95
2019-01-29T04:17:10.896Z,30.12
2019-01-29T04:19:39.320Z,39.35
2019-01-29T04:22:07.811Z,32.80
2019-01-29T04:24:36.604Z,39.83
2019-01-29T04:27:05.336Z,33.45
2019-01-29T04:29:34.040Z,31.75
2019-01-29T04:32:02.486Z,33.15
2019-01-29T04:34:31.579Z,33.25
2019-01-29T04:37:00.306Z,27.62
2019-01-29T04:39:29.090Z,28.57
2019-01-29T04:41:57.875Z,28.40
2019-01-29T04:44:26.321Z,30.52
2019-01-29T04:46:55.011Z,32.45
2019-01-29T04:49:23.739Z,29.20
2019-01-29T04:51:52.182Z,31.42
2019-01-29T04:54:20.642Z,30.02
2019-01-29T04:56:49.055Z,25.88
2019-01-29T04:59:17.554Z,25.23
2019-01-29T05:01:46.010Z,32.23
2019-01-29T05:04:14.449Z,49.70
2019-01-29T05:06:42.885Z,42.17
2019-01-29T05:09:11.685Z,53.98
2019-01-29T05:11:40.979Z,41.83
2019-01-29T05:14:09.418Z,50.40
2019-01-29T05:16:37.859Z,47.23
2019-01-29T05:19:06.306Z,49.25
2019-01-29T05:21:34.754Z,47.45
2019-01-29T05:24:06.764Z,53.17
2019-01-29T05:26:33.978Z,69.00
2019-01-29T05:29:02.442Z,46.02
2019-01-29T05:31:31.404Z,41.13
2019-01-29T05:33:59.834Z,52.55
2019-01-29T05:36:28.264Z,51.15
2019-01-29T05:38:56.715Z,51.55
2019-01-29T05:41:25.166Z,48.17
2019-01-29T05:43:53.865Z,41.68
2019-01-29T05:46:22.291Z,44.53
2019-01-29T05:48:51.036Z,56.30
2019-01-29T05:51:19.811Z,47.43
2019-01-29T05:53:48.503Z,29.00
2019-01-29T05:56:16.931Z,37.60
2019-01-29T05:58:45.706Z,32.30
2019-01-29T06:01:14.468Z,36.50
2019-01-29T06:03:42.903Z,33.67
2019-01-29T06:06:11.650Z,29.55
2019-01-29T06:08:40.448Z,34.45
2019-01-29T06:11:11.929Z,33.18
2019-01-29T06:13:40.987Z,38.88
2019-01-29T06:16:09.739Z,47.33
2019-01-29T06:18:38.186Z,51.25
2019-01-29T06:21:07.352Z,33.98
2019-01-29T06:23:35.808Z,40.25
2019-01-29T06:26:04.644Z,43.38
2019-01-29T06:28:33.086Z,32.98
2019-01-29T06:31:02.079Z,37.88
2019-01-29T06:33:30.519Z,35.65
2019-01-29T06:36:02.048Z,40.70
2019-01-29T06:38:30.477Z,37.60
2019-01-29T06:40:58.915Z,65.70
2019-01-29T06:43:27.470Z,45.23
2019-01-29T06:45:56.159Z,42.98
2019-01-29T06:48:24.650Z,51.55
2019-01-29T06:50:53.171Z,44.75
2019-01-29T06:53:21.578Z,51.05
2019-01-29T06:55:50.280Z,31.93
2019-01-29T06:58:18.715Z,42.53
2019-01-29T07:00:47.158Z,43.85
2019-01-29T07:03:15.623Z,101.27
2019-01-29T07:05:44.369Z,42.23
2019-01-29T07:08:12.808Z,48.48
2019-01-29T07:10:41.574Z,52.58
2019-01-29T07:13:10.362Z,46.02
2019-01-29T07:15:56.482Z,44.03
2019-01-29T07:18:33.620Z,47.20
2019-01-29T07:21:03.730Z,49.03
2019-01-29T07:23:32.170Z,46.77
2019-01-29T07:26:00.602Z,46.58
2019-01-29T07:28:29.388Z,49.88
2019-01-29T07:30:57.827Z,45.92
2019-01-29T07:33:26.578Z,48.25
2019-01-29T07:35:55.667Z,58.65
2019-01-29T07:38:24.095Z,47.73
2019-01-29T07:40:52.843Z,64.07
2019-01-29T07:43:21.275Z,53.75
2019-01-29T07:45:49.970Z,51.35
2019-01-29T07:48:18.398Z,53.20
2019-01-29T07:50:47.470Z,55.25
2019-01-29T07:53:15.925Z,54.88
2019-01-29T07:55:44.349Z,47.03
2019-01-29T07:58:12.776Z,56.63
2019-01-29T08:00:42.291Z,48.13
2019-01-29T08:03:11.411Z,36.68
2019-01-29T08:05:40.144Z,46.58
2019-01-29T08:08:08.886Z,51.77
2019-01-29T08:10:37.885Z,47.05
2019-01-29T08:13:06.708Z,50.78
2019-01-29T08:15:35.107Z,46.25
2019-01-29T08:18:03.833Z,44.58
2019-01-29T08:20:32.300Z,45.43
2019-01-29T08:23:00.738Z,49.45
2019-01-29T08:25:29.194Z,47.73
2019-01-29T08:27:58.008Z,49.98
2019-01-29T08:30:26.446Z,54.00
2019-01-29T08:32:54.876Z,53.42
2019-01-29T08:35:23.614Z,53.68
2019-01-29T08:37:52.037Z,44.33
2019-01-29T08:40:20.775Z,52.83
2019-01-29T08:42:49.769Z,46.92
2019-01-29T08:45:18.233Z,46.75
2019-01-29T08:47:46.953Z,45.58
2019-01-29T08:50:18.394Z,50.50
2019-01-29T08:52:47.180Z,53.10
2019-01-29T08:55:15.874Z,52.90
2019-01-29T08:57:44.648Z,58.28
2019-01-29T09:00:14.385Z,53.10
2019-01-29T09:02:42.837Z,58.28
2019-01-29T09:05:11.570Z,57.50
2019-01-29T09:07:40.619Z,61.13
2019-01-29T09:10:10.784Z,62.58
2019-01-29T09:12:39.276Z,58.50
2019-01-29T09:15:09.999Z,65.15
2019-01-29T09:17:38.436Z,54.55
2019-01-29T09:20:07.077Z,59.88
2019-01-29T09:22:35.802Z,57.70
2019-01-29T09:25:04.589Z,61.15
2019-01-29T09:27:33.355Z,72.12
2019-01-29T09:30:01.789Z,75.03
2019-01-29T09:32:30.232Z,71.40
2019-01-29T09:34:58.925Z,78.28
2019-01-29T09:37:27.674Z,82.45
2019-01-29T09:39:56.131Z,84.50
2019-01-29T09:42:25.195Z,81.57
2019-01-29T09:44:53.687Z,87.17
2019-01-29T09:47:22.136Z,84.92
2019-01-29T09:49:50.842Z,73.02
2019-01-29T09:52:19.633Z,69.70
2019-01-29T09:54:48.076Z,71.35
2019-01-29T09:57:16.539Z,71.10
2019-01-29T09:59:45.030Z,70.17
2019-01-29T10:02:13.477Z,71.80
2019-01-29T10:04:42.225Z,73.70
2019-01-29T10:07:10.713Z,73.60
2019-01-29T10:09:39.111Z,72.08
2019-01-29T10:12:07.547Z,80.10
2019-01-29T10:14:35.972Z,76.22
2019-01-29T10:17:04.417Z,63.95
2019-01-29T10:19:33.109Z,65.20
2019-01-29T10:22:01.905Z,61.40
2019-01-29T10:24:30.331Z,54.18
2019-01-29T10:26:58.765Z,64.92
2019-01-29T10:29:27.196Z,63.25
2019-01-29T10:31:55.639Z,60.88
2019-01-29T10:34:24.366Z,49.35
2019-01-29T10:36:52.809Z,44.75
2019-01-29T10:39:21.582Z,48.40
2019-01-29T10:41:50.025Z,43.08
2019-01-29T10:44:18.452Z,45.50
2019-01-29T10:46:47.139Z,44.93
2019-01-29T10:49:15.585Z,52.85
2019-01-29T10:51:44.393Z,44.63
2019-01-29T10:54:12.819Z,42.30
2019-01-29T10:56:41.266Z,45.12
2019-01-29T10:59:10.034Z,42.33
2019-01-29T11:01:38.475Z,42.13
2019-01-29T11:04:07.378Z,39.85
2019-01-29T11:06:36.164Z,46.85
2019-01-29T11:09:08.212Z,48.68
2019-01-29T11:14:04.317Z,50.38
2019-01-29T11:16:32.771Z,51.83
2019-01-29T11:19:03.282Z,38.83
2019-01-29T11:21:31.614Z,40.05
2019-01-29T11:24:00.065Z,46.88
2019-01-29T11:26:28.494Z,40.20
2019-01-29T11:28:57.039Z,44.20
2019-01-29T11:31:25.697Z,48.90
2019-01-29T11:33:54.129Z,38.65
2019-01-29T11:36:22.797Z,35.63
2019-01-29T11:38:51.229Z,37.70
2019-01-29T11:41:19.882Z,41.40
2019-01-29T11:43:48.385Z,40.38
2019-01-29T11:46:16.825Z,38.78
2019-01-29T11:48:45.282Z,41.90
2019-01-29T11:51:13.707Z,46.00
2019-01-29T11:53:42.455Z,41.35
2019-01-29T11:56:11.150Z,44.40
2019-01-29T11:58:39.585Z,43.80
2019-01-29T12:01:13.140Z,42.40
2019-01-29T12:03:41.830Z,37.98
2019-01-29T12:06:10.268Z,35.43
2019-01-29T12:08:38.717Z,40.28
2019-01-29T12:11:07.400Z,35.70
2019-01-29T12:13:35.891Z,38.48
2019-01-29T12:16:04.342Z,34.43
2019-01-29T12:18:32.805Z,31.37
2019-01-29T12:21:01.629Z,96.15
2019-01-29T12:23:30.087Z,108.60
2019-01-29T12:25:58.847Z,60.03
2019-01-29T12:28:27.286Z,69.45
2019-01-29T12:30:56.012Z,48.00
2019-01-29T12:33:24.447Z,48.35
2019-01-29T12:35:54.166Z,54.45
2019-01-29T12:38:23.191Z,55.00
2019-01-29T12:40:51.670Z,79.80
2019-01-29T12:43:20.107Z,38.98
2019-01-29T12:45:48.845Z,73.35
2019-01-29T12:48:17.340Z,61.23
2019-01-29T12:50:51.229Z,90.40
2019-01-29T12:53:22.275Z,44.00
2019-01-29T12:55:50.746Z,54.63
2019-01-29T12:58:19.168Z,61.55
2019-01-29T13:00:53.451Z,60.78
2019-01-29T13:03:21.883Z,66.53
2019-01-29T13:05:50.314Z,49.60
2019-01-29T13:08:21.583Z,86.32
2019-01-29T13:10:50.048Z,156.15
2019-01-29T13:13:18.827Z,63.85
2019-01-29T13:15:47.309Z,170.87
2019-01-29T13:18:15.742Z,69.95
2019-01-29T13:20:44.190Z,172.93
2019-01-29T13:23:12.619Z,90.95
2019-01-29T13:25:41.409Z,56.90
2019-01-29T13:28:09.843Z,46.77
2019-01-29T13:30:38.289Z,44.65
2019-01-29T13:33:09.378Z,52.35
2019-01-29T13:35:37.827Z,41.10
2019-01-29T13:38:06.933Z,39.05
2019-01-29T13:40:36.077Z,38.92
2019-01-29T13:43:05.201Z,39.20
2019-01-29T13:45:33.644Z,26.97
2019-01-29T13:48:02.062Z,30.27
2019-01-29T13:50:33.135Z,38.70
2019-01-29T13:53:02.193Z,30.15
2019-01-29T13:55:30.629Z,26.95
2019-01-29T13:57:59.050Z,41.63
2019-01-29T14:00:29.609Z,55.55
2019-01-29T14:02:58.045Z,26.68
2019-01-29T14:05:26.522Z,23.20
2019-01-29T14:07:54.952Z,36.42
2019-01-29T14:10:23.704Z,19.48
2019-01-29T14:12:52.504Z,21.75
2019-01-29T14:15:38.165Z,33.28
2019-01-29T14:18:08.768Z,47.27
2019-01-29T14:20:37.909Z,29.92
2019-01-29T14:23:07.979Z,27.77
2019-01-29T14:25:36.433Z,25.05
2019-01-29T14:28:04.885Z,23.85
2019-01-29T14:30:33.318Z,22.50
2019-01-29T14:33:01.736Z,51.13
2019-01-29T14:35:30.425Z,32.45
2019-01-29T14:38:46.286Z,24.72
2019-01-29T14:41:15.997Z,26.17
2019-01-29T14:43:50.374Z,22.52
2019-01-29T14:46:19.511Z,28.85
2019-01-29T14:48:47.942Z,27.10
2019-01-29T14:51:16.372Z,26.73
2019-01-29T14:53:44.802Z,26.57
2019-01-29T14:56:13.235Z,34.58
2019-01-29T14:58:42.156Z,22.67
2019-01-29T15:01:10.626Z,21.55
2019-01-29T15:03:39.067Z,26.40
2019-01-29T15:06:07.797Z,24.90
2019-01-29T15:08:36.237Z,20.23
2019-01-29T15:11:04.929Z,20.12
2019-01-29T15:13:33.365Z,20.30
2019-01-29T15:16:09.513Z,21.62
2019-01-29T15:18:41.509Z,17.85
2019-01-29T15:21:09.959Z,26.60
2019-01-29T15:23:38.394Z,21.37
2019-01-29T15:26:06.847Z,22.70
2019-01-29T15:28:35.275Z,24.35
2019-01-29T15:31:03.973Z,23.67
2019-01-29T15:33:32.417Z,21.80
2019-01-29T15:36:00.855Z,21.52
2019-01-29T15:38:29.626Z,20.02
2019-01-29T15:40:58.070Z,24.20
2019-01-29T15:43:26.501Z,18.82
2019-01-29T15:45:54.941Z,22.95
2019-01-29T15:48:24.062Z,22.90
2019-01-29T15:50:52.847Z,20.80
2019-01-29T15:53:21.304Z,24.75
2019-01-29T15:55:50.025Z,20.43
2019-01-29T15:58:18.801Z,22.70
2019-01-29T16:00:47.464Z,23.10
2019-01-29T16:03:15.909Z,25.10
2019-01-29T16:05:44.335Z,25.35
2019-01-29T16:08:12.790Z,26.12
2019-01-29T16:10:41.916Z,23.83
2019-01-29T16:13:10.356Z,25.92
2019-01-29T16:15:39.194Z,17.77
2019-01-29T16:18:07.634Z,22.20
2019-01-29T16:20:36.070Z,17.90
2019-01-29T16:23:06.370Z,14.33
2019-01-29T16:25:35.012Z,16.07
2019-01-29T16:28:03.457Z,15.72
2019-01-29T16:30:31.943Z,10.80
2019-01-29T16:33:00.392Z,13.80
2019-01-29T16:35:30.509Z,15.30
2019-01-29T16:37:58.980Z,21.57
2019-01-29T16:40:27.813Z,22.60
2019-01-29T16:42:56.693Z,18.75
2019-01-29T16:45:27.975Z,15.03
2019-01-29T16:47:56.510Z,19.20
2019-01-29T16:50:24.978Z,13.22
2019-01-29T16:52:53.421Z,16.52
2019-01-29T16:55:21.892Z,20.57
2019-01-29T16:57:50.346Z,16.35
2019-01-29T17:00:29.027Z,16.97
2019-01-29T17:02:57.535Z,18.17
2019-01-29T17:05:26.015Z,20.12
2019-01-29T17:07:54.538Z,17.82
2019-01-29T17:10:23.077Z,20.60
2019-01-29T17:12:51.509Z,19.62
2019-01-29T17:15:22.411Z,24.30
2019-01-29T17:17:50.868Z,24.05
2019-01-29T17:20:22.072Z,23.45
2019-01-29T17:22:50.550Z,20.87
2019-01-29T17:25:18.983Z,24.70
2019-01-29T17:27:47.766Z,19.67
2019-01-29T17:30:30.810Z,35.35
2019-01-29T17:32:59.264Z,23.00
2019-01-29T17:35:27.734Z,27.22
2019-01-29T17:37:56.235Z,23.47
2019-01-29T17:40:25.015Z,20.50
2019-01-29T17:42:53.468Z,20.72
2019-01-29T17:45:25.312Z,22.13
2019-01-29T17:47:53.837Z,20.17
2019-01-29T17:50:24.398Z,22.77
2019-01-29T17:52:53.163Z,23.10
2019-01-29T17:55:22.442Z,20.23
2019-01-29T17:57:51.255Z,22.27
2019-01-29T18:00:23.362Z,16.57
2019-01-29T18:05:19.459Z,23.32
2019-01-29T18:07:48.920Z,24.32
2019-01-29T18:10:17.379Z,16.87
2019-01-29T18:12:46.133Z,19.65
2019-01-29T18:15:17.344Z,18.27
2019-01-29T18:17:48.189Z,20.07
2019-01-29T18:20:16.415Z,24.82
2019-01-29T18:22:44.868Z,23.30
2019-01-29T18:25:13.560Z,28.47
2019-01-29T18:27:42.044Z,22.85
2019-01-29T18:30:13.995Z,26.12
2019-01-29T18:32:42.428Z,22.45
2019-01-29T18:35:11.152Z,32.65
2019-01-29T18:37:39.577Z,38.05
2019-01-29T18:40:09.684Z,36.35
2019-01-29T18:42:38.436Z,34.05
2019-01-29T18:45:07.288Z,28.55
2019-01-29T18:47:35.744Z,36.38
2019-01-29T18:50:05.057Z,41.88
2019-01-29T18:52:33.485Z,33.23
2019-01-29T18:55:02.376Z,42.85
2019-01-29T18:57:30.780Z,38.33
2019-01-29T18:59:59.225Z,50.52
2019-01-29T19:02:27.921Z,53.50
2019-01-29T19:04:56.375Z,42.95
2019-01-29T19:07:24.798Z,53.75
2019-01-29T19:09:53.263Z,44.63
2019-01-29T19:12:21.765Z,47.67
2019-01-29T19:14:50.295Z,39.45
2019-01-29T19:17:19.016Z,36.93
2019-01-29T19:19:47.474Z,30.23
2019-01-29T19:22:16.278Z,26.02
2019-01-29T19:24:44.799Z,24.12
2019-01-29T19:27:13.233Z,29.07
2019-01-29T19:29:41.685Z,35.30
2019-01-29T19:32:10.532Z,39.63
2019-01-29T19:34:39.295Z,41.85
2019-01-29T19:37:07.724Z,49.77
2019-01-29T19:39:36.464Z,44.55
2019-01-29T19:42:04.891Z,40.12
2019-01-29T19:44:33.636Z,46.92
2019-01-29T19:47:02.091Z,51.08
2019-01-29T19:49:30.507Z,43.40
2019-01-29T19:51:59.248Z,50.00
2019-01-29T19:54:27.675Z,61.98
2019-01-29T19:56:56.454Z,48.60
2019-01-29T19:59:24.902Z,58.55
2019-01-29T20:01:53.338Z,59.67
2019-01-29T20:04:22.007Z,45.90
2019-01-29T20:06:50.442Z,56.42
2019-01-29T20:09:18.862Z,51.60
2019-01-29T20:11:47.323Z,54.77
2019-01-29T20:14:15.760Z,47.90
2019-01-29T20:16:44.221Z,46.92
2019-01-29T20:19:12.652Z,43.00
2019-01-29T20:21:41.350Z,40.80
2019-01-29T20:24:09.783Z,39.73
2019-01-29T20:26:38.243Z,44.80
2019-01-29T20:29:06.676Z,45.20
2019-01-29T20:31:35.122Z,32.55
2019-01-29T20:34:03.556Z,40.50
2019-01-29T20:36:32.016Z,33.18
2019-01-29T20:39:00.465Z,35.85
2019-01-29T20:41:28.931Z,32.38
2019-01-29T20:43:57.360Z,30.77
2019-01-29T20:46:26.351Z,36.88
2019-01-29T20:48:55.786Z,36.38
2019-01-29T20:51:24.229Z,33.48
2019-01-29T20:53:52.943Z,29.85
2019-01-29T20:56:21.381Z,42.55
2019-01-29T20:58:52.745Z,39.88
2019-01-29T21:01:20.390Z,43.42
2019-01-29T21:03:48.838Z,48.38
2019-01-29T21:06:17.288Z,57.45
2019-01-29T21:08:45.732Z,47.38
2019-01-29T21:11:14.586Z,37.48
2019-01-29T21:13:43.342Z,53.63
2019-01-29T21:16:11.796Z,51.88
2019-01-29T21:18:40.246Z,50.58
2019-01-29T21:21:08.996Z,60.58
2019-01-29T21:23:37.455Z,71.75
2019-01-29T21:26:06.244Z,59.98
2019-01-29T21:28:34.691Z,47.43
2019-01-29T21:31:03.437Z,47.38
2019-01-29T21:33:31.884Z,29.10
2019-01-29T21:36:00.354Z,32.13
2019-01-29T21:38:29.230Z,47.67
2019-01-29T21:40:58.108Z,37.93
2019-01-29T21:43:27.983Z,43.38
2019-01-29T21:45:56.549Z,57.90
2019-01-29T21:48:25.149Z,67.65
2019-01-29T21:50:53.566Z,46.42
2019-01-29T21:53:22.413Z,58.78
2019-01-29T21:55:51.099Z,56.90
2019-01-29T21:58:19.677Z,47.25
2019-01-29T22:00:48.150Z,57.30
2019-01-29T22:03:16.708Z,37.33
2019-01-29T22:05:45.149Z,43.73
2019-01-29T22:08:13.606Z,42.55
2019-01-29T22:10:42.095Z,46.00
2019-01-29T22:13:12.085Z,62.27
2019-01-29T22:15:41.303Z,53.13
2019-01-29T22:18:11.979Z,59.05
2019-01-29T22:20:40.456Z,54.00
2019-01-29T22:23:09.214Z,99.80
2019-01-29T22:25:37.666Z,70.87
2019-01-29T22:28:08.246Z,35.63
2019-01-29T22:30:37.652Z,47.48
2019-01-29T22:33:07.049Z,49.98
2019-01-29T22:35:35.614Z,30.92
2019-01-29T22:38:04.038Z,49.50
2019-01-29T22:40:32.578Z,29.72
2019-01-29T22:43:01.033Z,34.58
2019-01-29T22:45:29.506Z,37.53
2019-01-29T22:47:57.985Z,48.58
2019-01-29T22:50:29.006Z,79.15
2019-01-29T22:52:57.566Z,76.02
2019-01-29T22:55:26.026Z,67.80
2019-01-29T22:57:54.507Z,49.73
2019-01-29T23:00:48.790Z,55.78
2019-01-29T23:03:21.655Z,69.85
2019-01-29T23:05:55.349Z,71.62
2019-01-29T23:08:24.348Z,43.48
2019-01-29T23:10:52.811Z,58.78
2019-01-29T23:13:21.257Z,69.27
2019-01-29T23:15:50.097Z,65.70
2019-01-29T23:18:18.558Z,65.67
2019-01-29T23:20:46.971Z,68.75
2019-01-29T23:23:15.761Z,76.55
2019-01-29T23:25:44.216Z,46.80
2019-01-29T23:28:13.937Z,46.15
2019-01-29T23:30:42.382Z,35.38
2019-01-29T23:33:10.819Z,49.95
2019-01-29T23:35:41.955Z,43.17
2019-01-29T23:38:10.411Z,36.97
2019-01-29T23:40:39.075Z,45.00
2019-01-29T23:43:07.529Z,42.60
2019-01-29T23:45:35.977Z,36.48
2019-01-29T23:48:04.420Z,59.03
2019-01-29T23:50:32.895Z,38.78
2019-01-29T23:53:01.727Z,51.68
2019-01-29T23:55:30.157Z,41.40
2019-01-29T23:57:58.883Z,47.70
